Time;durP1;ratioP1;P1;durP2;ratioP2;P2;SDS_P1;SDS_P2;PMS_P1;PMS_P2;Temp;Humidity;BMP_temperature;BMP_pressure;BME280_temperature;BME280_humidity;BME280_pressure;Samples;Min_cycle;Max_cycle;Signal;HPM_P1;HPM_P2
2022/07/14 00:00:58;;;;;;;4.80;1.97;;;;;;;20.52;49.11;101725.13;4999068;28;97144;-47
2022/07/14 00:03:23;;;;;;;6.50;1.73;;;;;;;20.46;48.99;101734.91;5000660;28;97316;-48
2022/07/14 00:05:49;;;;;;;7.03;1.83;;;;;;;20.43;49.20;101742.31;4999630;28;97090;-50
2022/07/14 00:08:14;;;;;;;5.80;1.73;;;;;;;20.40;49.23;101742.63;4999720;28;97156;-48
2022/07/14 00:10:39;;;;;;;7.73;2.10;;;;;;;20.35;49.18;101747.03;4994886;28;97316;-48
2022/07/14 00:13:05;;;;;;;4.83;1.70;;;;;;;20.30;49.37;101745.06;4984533;28;98828;-48
2022/07/14 00:15:31;;;;;;;4.07;1.40;;;;;;;20.25;49.33;101748.72;4996328;28;97895;-48
2022/07/14 00:17:58;;;;;;;7.43;2.40;;;;;;;20.18;49.50;101755.66;5002183;28;97475;-49
2022/07/14 00:20:24;;;;;;;4.80;1.57;;;;;;;20.12;49.45;101757.03;5001576;28;98874;-48
2022/07/14 00:22:50;;;;;;;3.67;1.23;;;;;;;20.06;49.72;101762.72;4999833;28;97728;-52
2022/07/14 00:25:15;;;;;;;4.57;1.83;;;;;;;20.02;49.63;101756.69;5001151;28;97400;-48
2022/07/14 00:27:40;;;;;;;3.93;1.60;;;;;;;19.94;49.86;101747.41;4997012;28;96868;-48
2022/07/14 00:30:06;;;;;;;4.33;1.67;;;;;;;19.90;49.90;101746.19;5001547;28;97216;-47
2022/07/14 00:32:33;;;;;;;4.47;1.30;;;;;;;19.91;50.13;101753.31;4999248;28;97133;-49
2022/07/14 00:34:59;;;;;;;3.60;1.53;;;;;;;19.90;50.00;101743.41;5002730;28;97178;-48
2022/07/14 00:37:24;;;;;;;5.40;1.50;;;;;;;19.86;50.00;101737.38;5003644;28;97319;-49
2022/07/14 00:39:55;;;;;;;5.37;1.70;;;;;;;19.80;50.17;101745.84;5001781;28;97421;-48
2022/07/14 00:42:32;;;;;;;7.13;1.97;;;;;;;19.74;50.63;101744.41;5003284;28;97190;-48
2022/07/14 00:44:59;;;;;;;6.40;1.50;;;;;;;19.67;50.10;101751.38;4995533;28;101616;-48
2022/07/14 00:47:24;;;;;;;5.37;2.10;;;;;;;19.63;50.40;101750.94;5000681;28;97018;-48
2022/07/14 00:49:54;;;;;;;8.53;1.90;;;;;;;19.59;50.46;101742.09;4997427;28;96994;-49
2022/07/14 00:52:20;;;;;;;6.23;2.07;;;;;;;19.55;50.28;101738.09;4997703;28;97209;-50
2022/07/14 00:54:46;;;;;;;5.30;1.63;;;;;;;19.54;50.51;101739.38;4999537;28;97351;-49
2022/07/14 00:57:11;;;;;;;6.00;1.67;;;;;;;19.56;50.60;101743.16;4995296;28;97312;-50
2022/07/14 00:59:36;;;;;;;6.63;1.70;;;;;;;19.57;50.71;101752.28;5002339;28;96928;-48
2022/07/14 01:02:02;;;;;;;5.80;1.60;;;;;;;19.56;50.56;101748.72;5005331;28;97492;-49
2022/07/14 01:04:27;;;;;;;4.30;1.67;;;;;;;19.53;50.44;101747.00;5004607;28;97433;-47
2022/07/14 01:06:53;;;;;;;6.90;1.83;;;;;;;19.51;50.55;101752.34;5005398;28;96915;-48
2022/07/14 01:09:18;;;;;;;5.97;1.53;;;;;;;19.50;50.58;101744.50;4999173;28;97382;-49
2022/07/14 01:11:43;;;;;;;5.30;1.90;;;;;;;19.49;50.66;101762.53;4999577;28;96770;-48
2022/07/14 01:14:09;;;;;;;7.37;1.90;;;;;;;19.46;50.70;101756.00;4995703;28;98560;-48
2022/07/14 01:16:34;;;;;;;6.20;1.30;;;;;;;19.43;50.85;101760.59;5001973;28;97242;-48
2022/07/14 01:18:59;;;;;;;3.83;1.33;;;;;;;19.36;50.83;101754.84;5003131;28;98723;-48
2022/07/14 01:21:25;;;;;;;2.70;1.53;;;;;;;19.27;50.80;101755.16;4982695;28;102502;-48
2022/07/14 01:23:50;;;;;;;6.00;1.87;;;;;;;19.19;50.98;101755.03;4973120;28;98433;-48
2022/07/14 01:26:16;;;;;;;3.27;1.43;;;;;;;19.14;51.06;101750.25;4992255;28;96862;-48
2022/07/14 01:28:42;;;;;;;5.13;1.60;;;;;;;19.11;51.15;101736.63;4996900;28;97290;-49
2022/07/14 01:31:07;;;;;;;3.57;1.63;;;;;;;19.10;51.35;101735.84;4993439;28;100689;-49
2022/07/14 01:33:33;;;;;;;4.30;1.50;;;;;;;19.04;51.29;101734.41;4996282;28;97088;-49
2022/07/14 01:35:58;;;;;;;7.03;2.23;;;;;;;19.01;51.44;101730.63;5000519;28;97098;-49
2022/07/14 01:38:23;;;;;;;5.60;1.80;;;;;;;18.98;51.18;101728.88;4999797;28;97287;-48
2022/07/14 01:40:49;;;;;;;6.20;1.30;;;;;;;18.96;51.26;101725.88;4988584;28;102298;-49
2022/07/14 01:43:14;;;;;;;5.83;2.03;;;;;;;18.96;51.23;101727.94;4972488;28;98317;-48
2022/07/14 01:45:39;;;;;;;9.63;2.20;;;;;;;18.94;51.36;101720.06;4953380;28;97273;-48
2022/07/14 01:48:05;;;;;;;5.90;2.13;;;;;;;18.91;51.45;101732.28;4950332;28;97173;-50
2022/07/14 01:50:30;;;;;;;6.23;1.53;;;;;;;18.89;51.61;101732.06;4976827;28;97507;-48
2022/07/14 01:52:56;;;;;;;4.93;1.80;;;;;;;18.89;51.47;101734.09;4998260;28;96901;-49
2022/07/14 01:55:21;;;;;;;6.40;2.00;;;;;;;18.88;51.38;101738.13;4995600;28;97155;-49
2022/07/14 01:57:46;;;;;;;6.63;1.90;;;;;;;18.88;51.49;101738.91;4997509;28;97285;-48
2022/07/14 02:00:12;;;;;;;5.67;1.60;;;;;;;18.87;51.72;101748.53;4994701;28;97503;-48
2022/07/14 02:02:38;;;;;;;4.40;1.40;;;;;;;18.84;51.36;101734.88;4999335;28;97161;-49
2022/07/14 02:05:03;;;;;;;4.50;1.50;;;;;;;18.81;51.48;101752.66;4999655;28;97319;-48
2022/07/14 02:07:29;;;;;;;4.73;1.47;;;;;;;18.77;51.64;101747.38;4993007;28;97221;-50
2022/07/14 02:12:38;;;;;;;3.97;1.60;;;;;;;18.76;51.57;101751.47;4993025;28;96702;-49
2022/07/14 02:15:04;;;;;;;4.90;1.50;;;;;;;18.73;51.64;101746.91;4990927;28;97534;-47
2022/07/14 02:17:30;;;;;;;3.50;1.73;;;;;;;18.73;51.71;101749.72;4993813;28;96989;-48
2022/07/14 02:19:55;;;;;;;7.77;1.90;;;;;;;18.70;51.83;101747.97;4994187;28;97279;-48
2022/07/14 02:22:21;;;;;;;2.40;1.37;;;;;;;18.69;51.90;101754.81;4998790;28;97232;-48
2022/07/14 02:24:46;;;;;;;3.03;1.63;;;;;;;18.68;51.85;101753.31;4998061;28;97315;-48
2022/07/14 02:27:11;;;;;;;3.53;1.57;;;;;;;18.64;51.79;101758.41;4997125;28;97183;-50
2022/07/14 02:29:37;;;;;;;3.97;1.70;;;;;;;18.59;51.92;101748.81;4997653;28;96694;-49
2022/07/14 02:32:02;;;;;;;5.23;1.80;;;;;;;18.59;52.17;101759.22;4992573;28;98520;-48
2022/07/14 02:34:28;;;;;;;3.60;1.40;;;;;;;18.59;52.19;101748.81;4993621;28;97013;-48
2022/07/14 02:36:53;;;;;;;3.17;1.60;;;;;;;18.60;52.11;101749.59;4992806;28;97318;-49
2022/07/14 02:39:19;;;;;;;4.90;1.77;;;;;;;18.60;52.21;101750.34;4990728;28;105943;-48
2022/07/14 02:41:44;;;;;;;2.90;1.20;;;;;;;18.59;52.23;101748.81;4992646;28;97168;-49
2022/07/14 02:44:09;;;;;;;8.10;2.10;;;;;;;18.57;52.19;101754.16;4997107;28;96679;-49
2022/07/14 02:46:35;;;;;;;6.40;1.80;;;;;;;18.53;52.12;101753.72;4997155;28;96776;-48
2022/07/14 02:49:01;;;;;;;3.80;1.60;;;;;;;18.50;52.28;101757.53;4998045;28;97300;-49
2022/07/14 02:51:26;;;;;;;5.23;1.70;;;;;;;18.43;52.54;101758.09;4994715;28;97212;-49
2022/07/14 02:53:51;;;;;;;7.27;1.40;;;;;;;18.41;52.64;101751.53;4984838;28;97361;-49
2022/07/14 02:56:17;;;;;;;10.03;2.40;;;;;;;18.39;52.52;101754.06;4991689;28;97086;-50
2022/07/14 02:58:42;;;;;;;3.47;1.60;;;;;;;18.32;52.80;101749.06;4994302;28;96751;-49
2022/07/14 03:01:09;;;;;;;6.77;2.07;;;;;;;18.28;52.79;101748.59;4992221;28;97104;-48
2022/07/14 03:03:35;;;;;;;5.83;1.80;;;;;;;18.30;52.88;101751.63;5000404;28;97006;-48
2022/07/14 03:06:19;;;;;;;2.77;1.40;;;;;;;18.28;53.50;101760.47;5000543;28;96904;-47
2022/07/14 03:08:45;;;;;;;5.70;1.83;;;;;;;18.32;52.97;101768.56;4997155;28;100560;-49
2022/07/14 03:11:11;;;;;;;1.93;1.10;;;;;;;18.34;52.71;101752.84;4997041;28;97138;-47
2022/07/14 03:13:37;;;;;;;8.70;1.90;;;;;;;18.34;53.03;101752.09;4995843;28;98613;-49
2022/07/14 03:16:06;;;;;;;4.20;1.67;;;;;;;18.33;52.92;101751.31;4992288;28;96994;-51
2022/07/14 03:18:32;;;;;;;3.93;1.33;;;;;;;18.33;53.05;101750.56;4992958;28;97215;-47
2022/07/14 03:20:57;;;;;;;3.83;1.97;;;;;;;18.30;52.87;101746.03;4990920;28;97210;-49
2022/07/14 03:23:23;;;;;;;3.93;1.47;;;;;;;18.28;53.02;101751.38;4996717;28;97030;-49
2022/07/14 03:25:49;;;;;;;5.10;1.83;;;;;;;18.24;53.19;101743.28;4987286;28;97127;-48
2022/07/14 03:28:15;;;;;;;2.53;1.30;;;;;;;18.25;53.06;101741.25;4997908;28;98019;-48
2022/07/14 03:30:40;;;;;;;4.27;1.33;;;;;;;18.22;53.12;101745.06;4985046;28;96949;-47
2022/07/14 03:33:05;;;;;;;3.80;1.23;;;;;;;18.17;53.13;101743.88;4995420;28;96921;-48
2022/07/14 03:35:31;;;;;;;7.33;1.70;;;;;;;18.13;53.22;101748.22;4999442;28;96897;-47
2022/07/14 03:37:56;;;;;;;5.10;1.60;;;;;;;18.07;53.42;101751.03;4996503;28;97336;-48
2022/07/14 03:40:22;;;;;;;3.57;1.43;;;;;;;18.03;53.46;101755.38;4997169;28;98386;-49
2022/07/14 03:42:47;;;;;;;3.57;1.60;;;;;;;18.00;53.30;101756.41;4997709;28;97044;-49
2022/07/14 03:45:12;;;;;;;4.40;1.63;;;;;;;18.00;53.42;101753.63;4992793;28;96995;-48
2022/07/14 03:47:38;;;;;;;5.70;1.47;;;;;;;17.95;53.40;101755.19;4988924;28;97610;-51
2022/07/14 03:50:04;;;;;;;3.27;1.43;;;;;;;17.96;53.57;101765.78;4981259;28;97911;-49
2022/07/14 03:52:29;;;;;;;4.13;1.53;;;;;;;18.01;53.59;101758.69;4994747;28;97268;-49
2022/07/14 03:54:54;;;;;;;9.07;1.80;;;;;;;18.03;53.52;101755.38;4994662;28;96894;-49
2022/07/14 03:57:20;;;;;;;2.97;1.43;;;;;;;18.04;53.46;101754.88;5000595;28;96898;-48
2022/07/14 03:59:45;;;;;;;4.33;1.30;;;;;;;18.04;53.47;101760.44;4998916;28;96970;-48
2022/07/14 04:02:11;;;;;;;2.00;1.17;;;;;;;18.03;53.61;101755.38;4982041;28;97066;-47
2022/07/14 04:04:38;;;;;;;4.27;1.57;;;;;;;18.03;53.61;101755.38;4994154;28;97327;-48
2022/07/14 04:07:04;;;;;;;3.57;1.43;;;;;;;18.04;53.53;101768.78;4996771;28;97381;-49
2022/07/14 04:09:30;;;;;;;7.40;1.60;;;;;;;18.07;53.54;101766.97;4995412;28;97242;-48
2022/07/14 04:11:56;;;;;;;7.10;1.70;;;;;;;18.11;53.56;101773.03;5000155;28;97309;-49
2022/07/14 04:14:22;;;;;;;5.10;2.30;;;;;;;18.15;53.70;101773.53;4983397;28;97592;-47
2022/07/14 04:16:48;;;;;;;6.90;1.70;;;;;;;18.20;53.63;101769.91;4994616;28;97407;-49
2022/07/14 04:19:13;;;;;;;6.10;1.63;;;;;;;18.23;53.63;101772.44;5000169;28;97108;-49
2022/07/14 04:21:39;;;;;;;3.57;1.67;;;;;;;18.28;53.48;101770.88;4998102;28;97037;-48
2022/07/14 04:24:04;;;;;;;5.00;2.13;;;;;;;18.31;53.54;101767.03;5000645;28;98339;-49
2022/07/14 04:26:30;;;;;;;6.03;1.87;;;;;;;18.35;53.51;101782.19;4999108;28;96989;-47
2022/07/14 04:28:56;;;;;;;2.53;1.17;;;;;;;18.39;53.59;101776.38;4998890;28;97360;-47
2022/07/14 04:31:21;;;;;;;5.33;1.70;;;;;;;18.40;53.67;101775.06;4997619;28;97238;-48
2022/07/14 04:33:47;;;;;;;7.10;1.80;;;;;;;18.43;53.56;101768.47;4999910;28;97233;-51
2022/07/14 04:36:12;;;;;;;5.13;1.80;;;;;;;18.45;53.78;101777.88;5004876;28;97484;-48
2022/07/14 04:38:38;;;;;;;3.60;1.67;;;;;;;18.50;53.53;101781.88;5007461;28;97191;-48
2022/07/14 04:41:03;;;;;;;4.83;1.70;;;;;;;18.55;53.79;101769.91;4994440;28;96786;-48
2022/07/14 04:43:29;;;;;;;7.07;1.80;;;;;;;18.59;53.43;101773.16;5009420;22;98686;-47
2022/07/14 04:45:54;;;;;;;4.73;1.50;;;;;;;18.63;53.62;101768.06;4974226;28;97031;-47
2022/07/14 04:48:20;;;;;;;5.90;1.67;;;;;;;18.70;53.73;101767.47;4972740;28;100643;-46
2022/07/14 04:53:29;;;;;;;7.50;2.10;;;;;;;18.77;53.55;101777.28;4979170;28;98786;-47
2022/07/14 04:55:54;;;;;;;6.53;1.83;;;;;;;18.79;53.71;101769.91;4980681;28;97362;-46
2022/07/14 04:58:21;;;;;;;2.17;1.53;;;;;;;18.81;53.46;101761.78;4980332;28;96842;-47
2022/07/14 05:00:47;;;;;;;4.60;1.80;;;;;;;18.81;53.75;101761.78;4983851;28;97055;-46
2022/07/14 05:03:12;;;;;;;4.43;1.43;;;;;;;18.83;53.71;101761.28;4971870;28;97131;-46
2022/07/14 05:05:39;;;;;;;4.27;1.50;;;;;;;18.85;53.69;101761.50;4971869;28;97019;-47
2022/07/14 05:08:05;;;;;;;9.67;2.00;;;;;;;18.87;53.51;101770.09;4977235;28;96938;-47
2022/07/14 05:10:30;;;;;;;4.73;1.60;;;;;;;18.87;53.66;101779.19;4973622;28;97399;-46
2022/07/14 05:12:56;;;;;;;7.47;1.83;;;;;;;18.88;53.69;101771.59;4977612;28;97118;-47
2022/07/14 05:15:22;;;;;;;4.73;1.20;;;;;;;18.88;53.52;101772.38;4975204;28;98513;-46
2022/07/14 05:17:47;;;;;;;4.90;1.70;;;;;;;18.86;53.76;101768.59;4967092;28;97122;-46
2022/07/14 05:20:12;;;;;;;4.70;1.60;;;;;;;18.82;53.79;101779.28;4980140;28;97184;-47
2022/07/14 05:22:40;;;;;;;6.53;1.40;;;;;;;18.81;53.86;101766.59;4983388;28;97029;-47
2022/07/14 05:25:07;;;;;;;3.73;1.53;;;;;;;18.79;53.87;101775.50;4971811;28;97507;-47
2022/07/14 05:27:33;;;;;;;3.70;1.20;;;;;;;18.82;53.95;101768.13;4973987;28;97205;-47
2022/07/14 05:29:58;;;;;;;3.70;1.53;;;;;;;18.83;53.96;101772.44;4970323;28;97111;-47
2022/07/14 05:32:23;;;;;;;5.60;1.50;;;;;;;18.85;53.88;101776.19;4975811;28;97156;-47
2022/07/14 05:34:49;;;;;;;6.00;1.70;;;;;;;18.88;54.03;101771.59;4977046;28;97368;-47
2022/07/14 05:37:15;;;;;;;7.87;1.67;;;;;;;18.93;53.90;101768.78;4978490;28;96803;-47
2022/07/14 05:39:40;;;;;;;4.83;1.43;;;;;;;19.02;53.86;101773.25;4976644;28;97117;-46
2022/07/14 05:42:06;;;;;;;4.23;1.10;;;;;;;19.11;53.54;101770.09;4978762;28;97359;-47
2022/07/14 05:44:31;;;;;;;3.73;1.20;;;;;;;19.12;53.33;101769.56;4974821;28;98684;-48
2022/07/14 05:46:57;;;;;;;4.23;1.40;;;;;;;19.14;53.21;101778.16;4976428;28;98017;-47
2022/07/14 05:49:22;;;;;;;5.50;1.20;;;;;;;19.12;52.98;101772.34;4969911;28;96823;-47
2022/07/14 05:51:48;;;;;;;4.77;1.47;;;;;;;19.17;53.09;101768.75;4975080;28;96834;-47
2022/07/14 05:54:13;;;;;;;4.00;1.17;;;;;;;19.25;53.13;101760.53;4957593;28;97688;-47
2022/07/14 05:56:38;;;;;;;5.47;1.07;;;;;;;19.28;52.96;101771.41;4975990;28;96950;-47
2022/07/14 05:59:04;;;;;;;3.63;1.20;;;;;;;19.24;53.01;101759.03;4978895;28;97430;-46
2022/07/14 06:01:29;;;;;;;8.87;1.10;;;;;;;19.33;52.91;101761.47;4975134;28;97665;-47
2022/07/14 06:03:57;;;;;;;2.70;1.03;;;;;;;19.35;52.68;101762.44;4977864;28;97395;-47
2022/07/14 06:06:23;;;;;;;1.90;1.00;;;;;;;19.37;52.72;101757.09;4976151;28;96769;-47
2022/07/14 06:08:49;;;;;;;7.03;1.10;;;;;;;19.46;52.79;101758.03;4974888;28;97312;-47
2022/07/14 06:11:15;;;;;;;4.10;1.33;;;;;;;19.54;52.86;101748.50;4976998;28;97144;-47
2022/07/14 06:13:41;;;;;;;2.93;1.10;;;;;;;19.63;52.46;101761.34;4973136;28;97345;-47
2022/07/14 06:16:07;;;;;;;2.13;0.97;;;;;;;19.71;52.22;101748.25;4975205;28;96681;-47
2022/07/14 06:18:33;;;;;;;6.37;1.43;;;;;;;19.74;52.06;101755.59;4972877;28;97301;-47
2022/07/14 06:20:58;;;;;;;4.63;1.23;;;;;;;19.80;52.13;101747.88;4978320;28;96964;-47
2022/07/14 06:23:24;;;;;;;2.47;0.97;;;;;;;19.87;51.94;101758.44;4975804;28;97403;-47
2022/07/14 06:25:49;;;;;;;3.60;0.83;;;;;;;19.91;51.59;101750.50;4975237;28;97266;-47
2022/07/14 06:28:15;;;;;;;2.83;0.50;;;;;;;19.96;51.32;101756.00;4975504;28;96930;-46
2022/07/14 06:30:40;;;;;;;3.23;0.70;;;;;;;20.06;51.29;101759.16;4975917;28;97212;-46
2022/07/14 06:33:06;;;;;;;1.63;0.93;;;;;;;20.13;51.05;101764.13;4975307;28;97327;-47
2022/07/14 06:35:31;;;;;;;2.77;0.83;;;;;;;20.06;50.92;101759.91;4974437;28;97349;-47
2022/07/14 06:37:57;;;;;;;3.10;0.90;;;;;;;20.11;50.78;101761.13;4974848;28;97336;-47
2022/07/14 06:40:23;;;;;;;3.17;1.00;;;;;;;20.16;50.70;101757.47;4974741;28;97348;-47
2022/07/14 06:42:48;;;;;;;2.23;1.00;;;;;;;20.24;50.94;101758.41;4974847;28;96849;-47
2022/07/14 06:45:14;;;;;;;3.47;1.00;;;;;;;20.31;50.65;101746.59;4977859;28;97222;-47
2022/07/14 06:47:40;;;;;;;1.43;0.70;;;;;;;20.38;50.43;101743.16;4972364;28;97312;-47
2022/07/14 06:50:07;;;;;;;2.20;0.93;;;;;;;20.45;50.42;101739.72;4974780;28;97100;-47
2022/07/14 06:52:32;;;;;;;1.93;0.70;;;;;;;20.55;50.63;101732.41;4978872;28;97223;-47
2022/07/14 06:54:58;;;;;;;9.67;1.10;;;;;;;20.68;50.33;101740.09;4972970;28;97228;-48
2022/07/14 06:57:24;;;;;;;5.90;0.90;;;;;;;20.69;49.93;101747.94;4977894;28;97048;-47
2022/07/14 06:59:49;;;;;;;0.60;0.60;;;;;;;20.65;49.82;101735.56;4974035;28;96948;-47
2022/07/14 07:02:15;;;;;;;3.63;0.93;;;;;;;20.67;49.76;101733.72;4976085;28;97648;-47
2022/07/14 07:04:40;;;;;;;2.70;0.90;;;;;;;20.74;49.86;101735.13;4973080;28;97106;-48
2022/07/14 07:07:05;;;;;;;2.50;0.70;;;;;;;20.82;49.63;101733.94;4973897;28;97067;-47
2022/07/14 07:09:31;;;;;;;2.23;1.00;;;;;;;20.93;49.39;101738.56;4977522;28;97061;-47
2022/07/14 07:11:56;;;;;;;3.63;1.00;;;;;;;21.04;49.42;101729.22;4978909;28;97611;-47
2022/07/14 07:14:22;;;;;;;1.70;0.80;;;;;;;21.15;49.06;101751.38;4979087;28;97166;-46
2022/07/14 07:16:49;;;;;;;5.00;0.70;;;;;;;21.22;48.62;101722.75;4978886;28;97109;-48
2022/07/14 07:19:16;;;;;;;4.47;0.97;;;;;;;21.25;48.60;101730.06;4975711;28;97262;-47
2022/07/14 07:21:41;;;;;;;4.77;0.97;;;;;;;21.36;48.21;101710.97;4976431;28;97537;-47
2022/07/14 07:24:07;;;;;;;2.90;0.70;;;;;;;21.49;48.14;101715.81;4974931;28;97199;-47
2022/07/14 07:26:38;;;;;;;2.00;0.87;;;;;;;21.53;47.58;101719.03;4978770;28;97170;-47
2022/07/14 07:29:04;;;;;;;1.70;0.73;;;;;;;21.51;47.96;101725.16;4973338;28;96743;-47
2022/07/14 07:31:30;;;;;;;5.00;1.00;;;;;;;21.48;47.78;101717.09;4979227;28;98530;-47
2022/07/14 07:33:56;;;;;;;3.20;0.80;;;;;;;21.52;47.75;101723.84;4979343;28;97040;-47
2022/07/14 07:36:21;;;;;;;1.20;0.80;;;;;;;21.46;47.64;101733.69;4979670;28;100394;-47
2022/07/14 07:38:47;;;;;;;2.77;0.70;;;;;;;21.32;47.65;101723.78;4979689;28;97168;-47
2022/07/14 07:41:12;;;;;;;4.00;0.97;;;;;;;21.17;47.87;101724.38;4977366;28;97742;-47
2022/07/14 07:43:37;;;;;;;2.03;0.60;;;;;;;21.14;48.06;101727.50;4981897;28;97333;-47
2022/07/14 07:46:05;;;;;;;1.00;0.90;;;;;;;21.17;48.09;101718.78;4978793;28;97164;-48
2022/07/14 07:48:31;;;;;;;1.10;0.80;;;;;;;21.19;48.11;101721.03;4978570;28;96789;-46
2022/07/14 07:50:57;;;;;;;1.67;0.70;;;;;;;21.32;48.06;101704.97;4979265;28;97353;-47
2022/07/14 07:53:23;;;;;;;3.20;1.03;;;;;;;21.38;47.50;101710.44;4976490;28;97459;-48
2022/07/14 07:55:48;;;;;;;1.80;0.73;;;;;;;21.48;47.41;101703.09;4973359;28;96703;-47
2022/07/14 07:58:14;;;;;;;1.70;0.67;;;;;;;21.58;47.54;101706.91;4969793;28;97642;-47
2022/07/14 08:00:39;;;;;;;2.20;0.77;;;;;;;21.61;47.49;101703.03;4972447;28;97089;-47
2022/07/14 08:03:05;;;;;;;1.17;0.70;;;;;;;21.58;47.64;101706.91;4972162;28;97257;-47
2022/07/14 08:05:32;;;;;;;2.57;0.87;;;;;;;21.58;47.71;101710.47;4972193;28;97156;-47
2022/07/14 08:07:58;;;;;;;1.73;0.70;;;;;;;21.56;47.75;101707.47;4981671;28;97109;-47
2022/07/14 08:10:24;;;;;;;2.90;0.90;;;;;;;21.55;47.86;101703.19;4981145;28;97265;-47
2022/07/14 08:12:49;;;;;;;5.63;1.20;;;;;;;21.67;47.63;101691.72;4965947;28;102219;-47
2022/07/14 08:15:15;;;;;;;2.13;0.90;;;;;;;21.89;47.55;101697.56;4971096;28;96837;-47
2022/07/14 08:17:41;;;;;;;2.10;0.97;;;;;;;22.07;47.24;101690.25;4981410;28;98006;-47
2022/07/14 08:20:08;;;;;;;3.10;0.90;;;;;;;22.13;46.71;101686.00;4975394;28;97354;-47
2022/07/14 08:22:33;;;;;;;2.40;0.63;;;;;;;22.12;46.69;101697.75;4971812;28;96707;-46
2022/07/14 08:24:59;;;;;;;2.50;1.23;;;;;;;22.07;46.74;101691.00;4977807;28;97063;-47
2022/07/14 08:27:26;;;;;;;0.80;0.60;;;;;;;22.04;46.57;101686.47;4974328;28;96800;-47
2022/07/14 08:29:52;;;;;;;3.43;0.87;;;;;;;22.06;46.48;101685.94;4967366;28;97309;-47
2022/07/14 08:32:44;;;;;;;2.00;0.67;;;;;;;22.12;46.02;101680.94;4981136;28;97374;-46
2022/07/14 08:35:12;;;;;;;1.93;0.83;;;;;;;22.28;46.25;101674.13;4981299;28;97082;-47
2022/07/14 08:37:38;;;;;;;1.40;0.67;;;;;;;22.38;45.82;101680.75;4983883;28;96968;-47
2022/07/14 08:40:15;;;;;;;2.20;0.80;;;;;;;22.38;45.14;101669.56;4977696;28;96762;-47
2022/07/14 08:42:45;;;;;;;1.07;0.60;;;;;;;22.32;44.89;101672.47;4972760;28;97509;-47
2022/07/14 08:45:13;;;;;;;3.77;0.60;;;;;;;22.30;45.17;101665.94;4978638;28;97019;-47
2022/07/14 08:47:40;;;;;;;3.87;1.00;;;;;;;22.29;45.02;101656.78;4975369;28;97083;-48
2022/07/14 08:50:08;;;;;;;3.63;0.73;;;;;;;22.49;45.01;101658.03;4976687;28;97364;-46
2022/07/14 08:52:34;;;;;;;2.40;0.60;;;;;;;22.76;44.82;101664.19;4977301;28;99459;-46
2022/07/14 08:55:00;;;;;;;3.70;0.77;;;;;;;22.84;44.47;101664.97;4977497;28;97075;-47
2022/07/14 08:57:27;;;;;;;1.43;0.67;;;;;;;22.85;44.54;101660.84;4979186;28;96967;-46
2022/07/14 08:59:52;;;;;;;3.23;0.70;;;;;;;22.81;44.68;101664.03;4981475;28;97364;-47
2022/07/14 09:02:18;;;;;;;1.70;0.50;;;;;;;22.94;44.18;101661.09;4977148;28;98341;-46
2022/07/14 09:04:46;;;;;;;1.47;0.60;;;;;;;23.01;44.18;101666.00;4972610;28;97006;-47
2022/07/14 09:07:30;;;;;;;1.33;0.80;;;;;;;23.18;43.43;101662.66;4975967;28;97026;-48
2022/07/14 09:10:07;;;;;;;2.50;0.63;;;;;;;23.30;43.49;101661.03;4971719;28;100599;-47
2022/07/14 09:12:35;;;;;;;1.53;0.60;;;;;;;23.41;43.54;101654.34;4973124;28;100191;-47
2022/07/14 09:17:53;;;;;;;0.90;0.50;;;;;;;23.75;41.93;101657.56;4977158;28;96960;-47
2022/07/14 09:20:19;;;;;;;1.83;0.97;;;;;;;23.77;42.64;101655.72;4979415;28;96719;-47
2022/07/14 09:22:45;;;;;;;1.43;0.70;;;;;;;23.79;42.75;101660.75;4979171;28;97210;-47
2022/07/14 09:25:16;;;;;;;3.23;0.77;;;;;;;23.87;42.34;101649.53;4979005;28;96892;-49
2022/07/14 09:27:45;;;;;;;2.40;0.50;;;;;;;24.07;42.58;101640.19;4977407;28;96972;-46
2022/07/14 09:30:12;;;;;;;2.60;0.80;;;;;;;24.21;42.06;101649.91;4966525;28;103267;-47
2022/07/14 09:32:48;;;;;;;1.80;0.53;;;;;;;24.21;41.09;101639.41;4970594;28;97425;-47
2022/07/14 09:35:17;;;;;;;1.63;0.80;;;;;;;24.17;41.36;101643.91;4981966;28;97312;-47
2022/07/14 09:37:42;;;;;;;2.00;0.83;;;;;;;24.15;41.45;101638.88;4978264;28;97372;-46
2022/07/14 09:40:19;;;;;;;1.13;0.50;;;;;;;24.14;41.06;101642.22;4973627;28;96985;-46
2022/07/14 09:42:50;;;;;;;0.60;0.40;;;;;;;23.99;41.44;101636.59;4980876;28;100279;-45
2022/07/14 09:45:21;;;;;;;1.70;0.70;;;;;;;24.10;41.50;101628.56;4980342;28;96824;-47
2022/07/14 09:48:10;;;;;;;2.60;0.87;;;;;;;24.49;40.28;101624.34;4969692;28;96961;-49
2022/07/14 09:50:45;;;;;;;1.03;0.70;;;;;;;24.77;39.90;101629.00;4976315;28;96972;-47
2022/07/14 09:53:37;;;;;;;1.50;0.70;;;;;;;24.51;40.16;101621.72;4976249;28;97346;-46
2022/07/14 09:56:06;;;;;;;2.50;0.77;;;;;;;24.20;40.46;101621.03;4975989;28;96928;-49
2022/07/14 09:58:40;;;;;;;1.20;0.70;;;;;;;24.06;40.58;101619.00;4971549;28;97034;-46
2022/07/14 10:01:11;;;;;;;1.00;0.80;;;;;;;24.11;39.70;101612.44;4953332;28;97597;-47
2022/07/14 10:03:42;;;;;;;3.70;0.80;;;;;;;24.19;40.59;101621.59;4971624;28;97136;-46
2022/07/14 10:06:09;;;;;;;0.70;0.50;;;;;;;24.41;40.53;101623.63;4950308;28;97039;-47
2022/07/14 10:08:39;;;;;;;1.73;0.90;;;;;;;24.74;40.51;101621.66;4980419;28;97141;-48
2022/07/14 10:11:05;;;;;;;2.07;0.90;;;;;;;25.02;40.01;101610.09;4977660;28;98566;-46
2022/07/14 10:13:31;;;;;;;1.27;0.70;;;;;;;25.11;39.55;101598.97;4976968;28;97568;-47
2022/07/14 10:15:58;;;;;;;2.33;0.90;;;;;;;25.28;39.29;101595.47;4974163;28;97726;-46
2022/07/14 10:18:26;;;;;;;2.50;1.00;;;;;;;25.27;39.04;101600.34;4978367;28;96699;-47
2022/07/14 10:20:53;;;;;;;2.90;1.20;;;;;;;25.14;39.15;101597.81;4974620;28;96928;-45
2022/07/14 10:23:20;;;;;;;1.27;0.70;;;;;;;25.23;38.87;101602.06;4977309;28;97342;-46
2022/07/14 10:25:47;;;;;;;1.50;0.70;;;;;;;25.31;39.12;101606.34;4981284;28;97127;-46
2022/07/14 10:28:16;;;;;;;1.50;1.40;;;;;;;25.44;38.25;101596.91;4981808;28;98413;-47
2022/07/14 10:30:57;;;;;;;2.10;1.00;;;;;;;25.37;38.06;101588.47;4981095;28;97361;-46
2022/07/14 10:33:35;;;;;;;1.57;1.00;;;;;;;25.21;38.76;101596.28;4978183;28;100066;-47
2022/07/14 10:36:04;;;;;;;1.33;1.10;;;;;;;25.07;38.49;101598.63;4980795;28;96944;-47
2022/07/14 10:38:40;;;;;;;1.67;1.20;;;;;;;25.01;37.29;101586.81;4977263;28;97371;-47
2022/07/14 10:41:21;;;;;;;2.40;1.30;;;;;;;25.06;37.85;101582.28;4976981;28;96899;-48
2022/07/14 10:44:21;;;;;;;2.53;1.30;;;;;;;25.24;37.17;101581.81;4992941;22;98078;-50
2022/07/14 10:46:48;;;;;;;1.30;1.20;;;;;;;25.39;37.89;101586.56;4995856;28;96977;-50
2022/07/14 10:49:15;;;;;;;1.33;0.93;;;;;;;25.53;37.84;101587.81;4999077;28;96828;-49
2022/07/14 10:51:49;;;;;;;1.97;1.20;;;;;;;25.51;37.54;101587.63;4998876;28;97406;-50
2022/07/14 10:54:29;;;;;;;1.57;1.03;;;;;;;25.36;37.18;101587.72;5000887;28;96788;-50
2022/07/14 10:57:17;;;;;;;2.70;1.23;;;;;;;25.40;37.21;101590.16;4996814;28;96803;-50
2022/07/14 10:59:49;;;;;;;1.40;1.10;;;;;;;25.63;37.49;101587.91;4996236;28;96681;-49
2022/07/14 11:02:14;;;;;;;5.80;1.57;;;;;;;25.83;37.75;101586.81;4999393;28;100600;-49
2022/07/14 11:05:08;;;;;;;0.80;0.80;;;;;;;26.01;36.90;101588.34;4997016;28;97196;-48
2022/07/14 11:07:46;;;;;;;1.40;0.70;;;;;;;26.23;36.81;101590.22;4992641;28;96875;-49
2022/07/14 11:10:18;;;;;;;6.50;0.93;;;;;;;26.18;36.30;101577.09;4995840;28;96752;-49
2022/07/14 11:13:05;;;;;;;2.00;1.00;;;;;;;26.05;36.68;101585.84;5000289;28;96954;-50
2022/07/14 11:15:56;;;;;;;0.80;0.60;;;;;;;26.00;36.70;101567.09;5000727;28;101638;-50
2022/07/14 11:18:27;;;;;;;0.80;0.60;;;;;;;26.09;36.65;101566.47;4996225;28;97187;-49
2022/07/14 11:21:11;;;;;;;1.47;0.87;;;;;;;26.12;36.79;101558.94;4990067;28;98866;-49
2022/07/14 11:23:48;;;;;;;1.37;0.60;;;;;;;26.15;36.46;101563.38;4995900;28;100617;-54
2022/07/14 11:26:31;;;;;;;1.47;0.63;;;;;;;25.93;35.69;101565.84;4993391;28;97209;-50
2022/07/14 11:28:58;;;;;;;2.60;0.67;;;;;;;25.86;36.49;101563.84;5000168;28;97379;-49
2022/07/14 11:31:24;;;;;;;1.07;0.67;;;;;;;25.98;36.41;101572.56;5003129;28;96960;-50
2022/07/14 11:36:39;;;;;;;1.80;0.53;;;;;;;26.10;35.86;101565.16;4990970;28;97057;-50